sensor_id;sensor_type;location;lat;lon;timestamp;temperature;humidity
42885;DHT22;28534;48.100;11.584;2023-08-30T00:00:39;24.00;63.10
42885;DHT22;28534;48.100;11.584;2023-08-30T00:01:41;24.00;63.10
42885;DHT22;28534;48.100;11.584;2023-08-30T00:02:41;24.00;63.10
42885;DHT22;28534;48.100;11.584;2023-08-30T00:03:43;24.00;63.10
42885;DHT22;28534;48.100;11.584;2023-08-30T00:04:43;24.00;63.10
42885;DHT22;28534;48.100;11.584;2023-08-30T00:05:45;24.00;63.20
42885;DHT22;28534;48.100;11.584;2023-08-30T00:06:46;24.00;63.10
42885;DHT22;28534;48.100;11.584;2023-08-30T00:07:47;24.00;63.10
42885;DHT22;28534;48.100;11.584;2023-08-30T00:08:48;24.00;63.90
42885;DHT22;28534;48.100;11.584;2023-08-30T00:09:48;24.00;63.10
42885;DHT22;28534;48.100;11.584;2023-08-30T00:10:50;24.00;63.10
42885;DHT22;28534;48.100;11.584;2023-08-30T00:11:51;24.00;63.00
42885;DHT22;28534;48.100;11.584;2023-08-30T00:12:53;24.10;63.10
42885;DHT22;28534;48.100;11.584;2023-08-30T00:14:02;24.00;63.00
42885;DHT22;28534;48.100;11.584;2023-08-30T00:15:04;24.00;63.00
42885;DHT22;28534;48.100;11.584;2023-08-30T00:16:04;24.00;63.10
42885;DHT22;28534;48.100;11.584;2023-08-30T00:17:08;24.00;63.10
42885;DHT22;28534;48.100;11.584;2023-08-30T00:18:09;24.00;63.00
42885;DHT22;28534;48.100;11.584;2023-08-30T00:19:11;24.00;63.10
42885;DHT22;28534;48.100;11.584;2023-08-30T00:20:11;24.00;63.10
42885;DHT22;28534;48.100;11.584;2023-08-30T00:21:13;24.00;63.10
42885;DHT22;28534;48.100;11.584;2023-08-30T00:22:14;24.00;63.10
42885;DHT22;28534;48.100;11.584;2023-08-30T00:23:15;24.00;63.00
42885;DHT22;28534;48.100;11.584;2023-08-30T00:24:17;24.00;63.10
42885;DHT22;28534;48.100;11.584;2023-08-30T00:25:17;24.00;63.10
42885;DHT22;28534;48.100;11.584;2023-08-30T00:26:19;24.00;63.10
42885;DHT22;28534;48.100;11.584;2023-08-30T00:27:19;24.00;63.10
42885;DHT22;28534;48.100;11.584;2023-08-30T00:28:21;24.00;63.10
42885;DHT22;28534;48.100;11.584;2023-08-30T00:29:22;24.00;63.10
42885;DHT22;28534;48.100;11.584;2023-08-30T00:30:24;24.00;63.10
42885;DHT22;28534;48.100;11.584;2023-08-30T00:31:24;24.00;63.10
42885;DHT22;28534;48.100;11.584;2023-08-30T00:32:27;24.00;63.10
42885;DHT22;28534;48.100;11.584;2023-08-30T00:33:28;24.00;63.10
42885;DHT22;28534;48.100;11.584;2023-08-30T00:34:29;24.10;63.20
42885;DHT22;28534;48.100;11.584;2023-08-30T00:35:30;24.00;63.20
42885;DHT22;28534;48.100;11.584;2023-08-30T00:36:31;24.00;63.10
42885;DHT22;28534;48.100;11.584;2023-08-30T00:37:32;24.00;63.20
42885;DHT22;28534;48.100;11.584;2023-08-30T00:38:34;24.00;63.10
42885;DHT22;28534;48.100;11.584;2023-08-30T00:39:36;24.00;63.10
42885;DHT22;28534;48.100;11.584;2023-08-30T00:40:38;24.00;63.20
42885;DHT22;28534;48.100;11.584;2023-08-30T00:41:40;24.00;63.10
42885;DHT22;28534;48.100;11.584;2023-08-30T00:42:41;24.00;63.10
42885;DHT22;28534;48.100;11.584;2023-08-30T00:43:42;24.00;63.10
42885;DHT22;28534;48.100;11.584;2023-08-30T00:44:44;24.00;63.20
42885;DHT22;28534;48.100;11.584;2023-08-30T00:45:44;24.10;63.20
42885;DHT22;28534;48.100;11.584;2023-08-30T00:46:46;24.00;63.10
42885;DHT22;28534;48.100;11.584;2023-08-30T00:47:48;24.00;63.10
42885;DHT22;28534;48.100;11.584;2023-08-30T00:48:49;23.90;63.00
42885;DHT22;28534;48.100;11.584;2023-08-30T00:49:50;24.00;63.10
42885;DHT22;28534;48.100;11.584;2023-08-30T00:50:51;24.00;63.10
42885;DHT22;28534;48.100;11.584;2023-08-30T00:51:52;24.00;63.10
42885;DHT22;28534;48.100;11.584;2023-08-30T00:52:54;24.00;63.20
42885;DHT22;28534;48.100;11.584;2023-08-30T00:53:55;24.00;63.10
42885;DHT22;28534;48.100;11.584;2023-08-30T00:54:57;24.00;63.20
42885;DHT22;28534;48.100;11.584;2023-08-30T00:55:58;24.00;63.10
42885;DHT22;28534;48.100;11.584;2023-08-30T00:56:59;24.00;63.10
42885;DHT22;28534;48.100;11.584;2023-08-30T00:58:01;24.00;63.10
42885;DHT22;28534;48.100;11.584;2023-08-30T00:59:02;24.00;63.10
42885;DHT22;28534;48.100;11.584;2023-08-30T01:00:04;24.00;63.10
42885;DHT22;28534;48.100;11.584;2023-08-30T01:01:06;24.00;63.30
42885;DHT22;28534;48.100;11.584;2023-08-30T01:02:08;24.00;63.10
42885;DHT22;28534;48.100;11.584;2023-08-30T01:03:11;24.00;63.20
42885;DHT22;28534;48.100;11.584;2023-08-30T01:04:13;24.00;63.10
42885;DHT22;28534;48.100;11.584;2023-08-30T01:05:14;24.00;63.20
42885;DHT22;28534;48.100;11.584;2023-08-30T01:06:16;24.00;63.20
42885;DHT22;28534;48.100;11.584;2023-08-30T01:07:16;24.00;63.20
42885;DHT22;28534;48.100;11.584;2023-08-30T01:08:17;24.00;63.20
42885;DHT22;28534;48.100;11.584;2023-08-30T01:09:19;24.00;63.20
42885;DHT22;28534;48.100;11.584;2023-08-30T01:10:22;24.00;63.20
42885;DHT22;28534;48.100;11.584;2023-08-30T01:11:29;24.00;63.20
42885;DHT22;28534;48.100;11.584;2023-08-30T01:12:33;24.00;63.20
42885;DHT22;28534;48.100;11.584;2023-08-30T01:13:40;24.00;63.30
42885;DHT22;28534;48.100;11.584;2023-08-30T01:14:43;24.00;63.20
42885;DHT22;28534;48.100;11.584;2023-08-30T01:15:46;24.00;63.10
42885;DHT22;28534;48.100;11.584;2023-08-30T01:16:47;24.00;63.10
42885;DHT22;28534;48.100;11.584;2023-08-30T01:17:50;24.00;63.20
42885;DHT22;28534;48.100;11.584;2023-08-30T01:18:54;24.00;63.20
42885;DHT22;28534;48.100;11.584;2023-08-30T01:19:57;24.00;63.20
42885;DHT22;28534;48.100;11.584;2023-08-30T01:20:58;24.00;63.30
42885;DHT22;28534;48.100;11.584;2023-08-30T01:22:05;23.90;63.10
42885;DHT22;28534;48.100;11.584;2023-08-30T01:23:10;24.00;63.20
42885;DHT22;28534;48.100;11.584;2023-08-30T01:24:17;24.00;63.20
42885;DHT22;28534;48.100;11.584;2023-08-30T01:25:31;24.00;63.10
42885;DHT22;28534;48.100;11.584;2023-08-30T01:26:37;24.00;63.20
42885;DHT22;28534;48.100;11.584;2023-08-30T01:27:40;24.00;63.20
42885;DHT22;28534;48.100;11.584;2023-08-30T01:28:42;24.00;63.20
42885;DHT22;28534;48.100;11.584;2023-08-30T01:29:43;24.00;63.30
42885;DHT22;28534;48.100;11.584;2023-08-30T01:30:45;24.00;63.20
42885;DHT22;28534;48.100;11.584;2023-08-30T01:31:46;24.00;63.20
42885;DHT22;28534;48.100;11.584;2023-08-30T01:32:49;23.90;63.10
42885;DHT22;28534;48.100;11.584;2023-08-30T01:33:50;24.00;63.20
42885;DHT22;28534;48.100;11.584;2023-08-30T01:34:52;24.00;63.20
42885;DHT22;28534;48.100;11.584;2023-08-30T01:35:53;24.00;63.20
42885;DHT22;28534;48.100;11.584;2023-08-30T01:36:55;24.00;63.20
42885;DHT22;28534;48.100;11.584;2023-08-30T01:37:55;24.00;63.20
42885;DHT22;28534;48.100;11.584;2023-08-30T01:38:57;23.90;63.20
42885;DHT22;28534;48.100;11.584;2023-08-30T01:39:59;24.00;63.20
42885;DHT22;28534;48.100;11.584;2023-08-30T01:41:00;24.00;63.20
42885;DHT22;28534;48.100;11.584;2023-08-30T01:42:01;24.00;63.30
42885;DHT22;28534;48.100;11.584;2023-08-30T01:43:04;24.00;63.20
42885;DHT22;28534;48.100;11.584;2023-08-30T01:44:07;24.00;63.20
42885;DHT22;28534;48.100;11.584;2023-08-30T01:45:08;24.00;63.20
42885;DHT22;28534;48.100;11.584;2023-08-30T01:46:13;24.00;64.10
42885;DHT22;28534;48.100;11.584;2023-08-30T01:47:14;24.00;63.20
42885;DHT22;28534;48.100;11.584;2023-08-30T01:48:16;23.90;63.10
42885;DHT22;28534;48.100;11.584;2023-08-30T01:49:17;24.00;63.20
42885;DHT22;28534;48.100;11.584;2023-08-30T01:50:19;24.00;63.20
42885;DHT22;28534;48.100;11.584;2023-08-30T01:51:20;24.00;63.20
42885;DHT22;28534;48.100;11.584;2023-08-30T01:52:21;24.00;63.20
42885;DHT22;28534;48.100;11.584;2023-08-30T01:53:22;24.00;63.30
42885;DHT22;28534;48.100;11.584;2023-08-30T01:54:24;24.00;63.40
42885;DHT22;28534;48.100;11.584;2023-08-30T01:55:25;24.00;63.20
42885;DHT22;28534;48.100;11.584;2023-08-30T01:56:27;24.00;63.20
42885;DHT22;28534;48.100;11.584;2023-08-30T01:57:28;24.00;63.20
42885;DHT22;28534;48.100;11.584;2023-08-30T01:58:30;23.90;63.10
42885;DHT22;28534;48.100;11.584;2023-08-30T01:59:31;24.00;63.20
42885;DHT22;28534;48.100;11.584;2023-08-30T02:00:32;24.00;63.30
42885;DHT22;28534;48.100;11.584;2023-08-30T02:01:34;24.00;63.20
42885;DHT22;28534;48.100;11.584;2023-08-30T02:02:34;24.00;63.30
42885;DHT22;28534;48.100;11.584;2023-08-30T02:03:36;24.00;63.20
42885;DHT22;28534;48.100;11.584;2023-08-30T02:04:36;23.90;63.10
42885;DHT22;28534;48.100;11.584;2023-08-30T02:05:39;23.90;63.10
42885;DHT22;28534;48.100;11.584;2023-08-30T02:06:45;24.00;63.20
42885;DHT22;28534;48.100;11.584;2023-08-30T02:07:51;24.00;63.20
42885;DHT22;28534;48.100;11.584;2023-08-30T02:08:52;24.00;63.20
42885;DHT22;28534;48.100;11.584;2023-08-30T02:09:57;23.90;63.10
42885;DHT22;28534;48.100;11.584;2023-08-30T02:11:01;23.90;63.10
42885;DHT22;28534;48.100;11.584;2023-08-30T02:12:04;24.00;63.30
42885;DHT22;28534;48.100;11.584;2023-08-30T02:13:06;24.00;63.30
42885;DHT22;28534;48.100;11.584;2023-08-30T02:14:09;24.00;63.30
42885;DHT22;28534;48.100;11.584;2023-08-30T02:15:10;24.00;63.30
42885;DHT22;28534;48.100;11.584;2023-08-30T02:16:13;24.00;63.30
42885;DHT22;28534;48.100;11.584;2023-08-30T02:17:14;23.90;63.10
42885;DHT22;28534;48.100;11.584;2023-08-30T02:18:14;24.00;63.20
42885;DHT22;28534;48.100;11.584;2023-08-30T02:19:16;23.90;63.20
42885;DHT22;28534;48.100;11.584;2023-08-30T02:20:21;23.90;63.10
42885;DHT22;28534;48.100;11.584;2023-08-30T02:21:23;24.00;63.30
42885;DHT22;28534;48.100;11.584;2023-08-30T02:22:24;24.00;63.40
42885;DHT22;28534;48.100;11.584;2023-08-30T02:23:25;24.00;63.30
42885;DHT22;28534;48.100;11.584;2023-08-30T02:24:26;23.90;63.20
42885;DHT22;28534;48.100;11.584;2023-08-30T02:25:26;23.90;63.30
42885;DHT22;28534;48.100;11.584;2023-08-30T02:26:28;24.00;63.30
42885;DHT22;28534;48.100;11.584;2023-08-30T02:27:28;23.90;63.20
42885;DHT22;28534;48.100;11.584;2023-08-30T02:28:30;24.00;63.30
42885;DHT22;28534;48.100;11.584;2023-08-30T02:29:32;23.90;63.10
42885;DHT22;28534;48.100;11.584;2023-08-30T02:30:34;23.90;63.10
42885;DHT22;28534;48.100;11.584;2023-08-30T02:31:35;23.90;63.30
42885;DHT22;28534;48.100;11.584;2023-08-30T02:32:36;24.00;63.20
42885;DHT22;28534;48.100;11.584;2023-08-30T02:33:37;23.90;63.30
42885;DHT22;28534;48.100;11.584;2023-08-30T02:34:38;24.00;63.20
42885;DHT22;28534;48.100;11.584;2023-08-30T02:35:39;23.90;63.20
42885;DHT22;28534;48.100;11.584;2023-08-30T02:36:41;23.90;63.30
42885;DHT22;28534;48.100;11.584;2023-08-30T02:37:41;23.90;63.20
42885;DHT22;28534;48.100;11.584;2023-08-30T02:38:43;24.00;63.30
42885;DHT22;28534;48.100;11.584;2023-08-30T02:39:44;23.90;63.20
42885;DHT22;28534;48.100;11.584;2023-08-30T02:40:45;23.90;63.30
42885;DHT22;28534;48.100;11.584;2023-08-30T02:41:46;23.90;63.30
42885;DHT22;28534;48.100;11.584;2023-08-30T02:42:48;24.00;63.40
42885;DHT22;28534;48.100;11.584;2023-08-30T02:43:48;23.90;63.30
42885;DHT22;28534;48.100;11.584;2023-08-30T02:44:51;23.90;63.30
42885;DHT22;28534;48.100;11.584;2023-08-30T02:45:52;24.00;63.40
42885;DHT22;28534;48.100;11.584;2023-08-30T02:46:54;23.90;63.30
42885;DHT22;28534;48.100;11.584;2023-08-30T02:47:55;23.90;63.30
42885;DHT22;28534;48.100;11.584;2023-08-30T02:48:56;23.90;63.20
42885;DHT22;28534;48.100;11.584;2023-08-30T02:49:57;23.90;63.30
42885;DHT22;28534;48.100;11.584;2023-08-30T02:50:58;23.90;63.30
42885;DHT22;28534;48.100;11.584;2023-08-30T02:51:59;23.90;63.30
42885;DHT22;28534;48.100;11.584;2023-08-30T02:53:01;23.90;63.30
42885;DHT22;28534;48.100;11.584;2023-08-30T02:54:01;23.90;63.20
42885;DHT22;28534;48.100;11.584;2023-08-30T02:55:03;23.90;63.30
42885;DHT22;28534;48.100;11.584;2023-08-30T02:56:04;23.90;63.30
42885;DHT22;28534;48.100;11.584;2023-08-30T02:57:05;23.90;63.30
42885;DHT22;28534;48.100;11.584;2023-08-30T02:58:06;23.90;63.30
42885;DHT22;28534;48.100;11.584;2023-08-30T02:59:08;23.90;63.30
42885;DHT22;28534;48.100;11.584;2023-08-30T03:00:10;23.90;63.70
42885;DHT22;28534;48.100;11.584;2023-08-30T03:01:12;23.90;63.30
42885;DHT22;28534;48.100;11.584;2023-08-30T03:02:13;24.00;63.40
42885;DHT22;28534;48.100;11.584;2023-08-30T03:03:14;23.90;63.30
42885;DHT22;28534;48.100;11.584;2023-08-30T03:04:15;23.90;63.30
42885;DHT22;28534;48.100;11.584;2023-08-30T03:05:17;23.90;63.40
42885;DHT22;28534;48.100;11.584;2023-08-30T03:06:17;23.90;63.30
42885;DHT22;28534;48.100;11.584;2023-08-30T03:07:19;23.90;63.30
42885;DHT22;28534;48.100;11.584;2023-08-30T03:08:20;23.90;63.20
42885;DHT22;28534;48.100;11.584;2023-08-30T03:09:21;23.90;63.30
42885;DHT22;28534;48.100;11.584;2023-08-30T03:10:22;23.90;63.30
42885;DHT22;28534;48.100;11.584;2023-08-30T03:11:24;23.90;63.30
42885;DHT22;28534;48.100;11.584;2023-08-30T03:12:24;23.90;63.30
42885;DHT22;28534;48.100;11.584;2023-08-30T03:13:25;23.90;63.30
42885;DHT22;28534;48.100;11.584;2023-08-30T03:14:26;23.90;63.30
42885;DHT22;28534;48.100;11.584;2023-08-30T03:15:28;23.90;63.30
42885;DHT22;28534;48.100;11.584;2023-08-30T03:16:32;23.90;63.30
42885;DHT22;28534;48.100;11.584;2023-08-30T03:17:32;23.90;63.30
42885;DHT22;28534;48.100;11.584;2023-08-30T03:18:34;23.90;63.30
42885;DHT22;28534;48.100;11.584;2023-08-30T03:19:34;23.90;63.30
42885;DHT22;28534;48.100;11.584;2023-08-30T03:20:36;24.00;63.40
42885;DHT22;28534;48.100;11.584;2023-08-30T03:21:36;23.90;63.30
42885;DHT22;28534;48.100;11.584;2023-08-30T03:22:38;23.90;63.30
42885;DHT22;28534;48.100;11.584;2023-08-30T03:23:39;23.90;63.30
42885;DHT22;28534;48.100;11.584;2023-08-30T03:24:40;23.90;63.30
42885;DHT22;28534;48.100;11.584;2023-08-30T03:25:41;23.90;63.30
42885;DHT22;28534;48.100;11.584;2023-08-30T03:26:43;23.90;63.30
42885;DHT22;28534;48.100;11.584;2023-08-30T03:27:43;23.90;63.30
42885;DHT22;28534;48.100;11.584;2023-08-30T03:28:44;23.90;63.30
42885;DHT22;28534;48.100;11.584;2023-08-30T03:29:46;23.90;63.30
42885;DHT22;28534;48.100;11.584;2023-08-30T03:30:48;23.90;63.30
42885;DHT22;28534;48.100;11.584;2023-08-30T03:31:49;23.90;63.30
42885;DHT22;28534;48.100;11.584;2023-08-30T03:32:50;23.90;63.30
42885;DHT22;28534;48.100;11.584;2023-08-30T03:33:51;23.90;63.30
42885;DHT22;28534;48.100;11.584;2023-08-30T03:34:52;23.90;63.30
42885;DHT22;28534;48.100;11.584;2023-08-30T03:35:53;23.90;63.30
42885;DHT22;28534;48.100;11.584;2023-08-30T03:36:54;23.90;63.30
42885;DHT22;28534;48.100;11.584;2023-08-30T03:37:56;23.90;63.30
42885;DHT22;28534;48.100;11.584;2023-08-30T03:38:56;23.90;63.30
42885;DHT22;28534;48.100;11.584;2023-08-30T03:39:58;23.90;63.40
42885;DHT22;28534;48.100;11.584;2023-08-30T03:40:58;23.90;63.30
42885;DHT22;28534;48.100;11.584;2023-08-30T03:42:00;23.90;63.40
42885;DHT22;28534;48.100;11.584;2023-08-30T03:43:00;23.90;63.30
42885;DHT22;28534;48.100;11.584;2023-08-30T03:44:03;23.90;63.40
42885;DHT22;28534;48.100;11.584;2023-08-30T03:45:04;23.90;63.30
42885;DHT22;28534;48.100;11.584;2023-08-30T03:46:08;23.90;63.30
42885;DHT22;28534;48.100;11.584;2023-08-30T03:47:09;23.90;63.40
42885;DHT22;28534;48.100;11.584;2023-08-30T03:48:11;23.90;63.30
42885;DHT22;28534;48.100;11.584;2023-08-30T03:49:11;23.90;63.30
42885;DHT22;28534;48.100;11.584;2023-08-30T03:50:13;23.90;63.30
42885;DHT22;28534;48.100;11.584;2023-08-30T03:51:14;23.90;63.30
42885;DHT22;28534;48.100;11.584;2023-08-30T03:52:15;23.90;63.30
42885;DHT22;28534;48.100;11.584;2023-08-30T03:53:16;23.90;63.40
42885;DHT22;28534;48.100;11.584;2023-08-30T03:54:17;23.90;63.30
42885;DHT22;28534;48.100;11.584;2023-08-30T03:55:18;23.90;63.30
42885;DHT22;28534;48.100;11.584;2023-08-30T03:56:20;23.90;63.30
42885;DHT22;28534;48.100;11.584;2023-08-30T03:57:20;24.00;63.40
42885;DHT22;28534;48.100;11.584;2023-08-30T03:58:23;23.90;63.40
42885;DHT22;28534;48.100;11.584;2023-08-30T03:59:23;23.90;63.40
42885;DHT22;28534;48.100;11.584;2023-08-30T04:00:27;23.90;63.40
42885;DHT22;28534;48.100;11.584;2023-08-30T04:01:29;23.90;63.40
42885;DHT22;28534;48.100;11.584;2023-08-30T04:02:31;23.90;63.30
42885;DHT22;28534;48.100;11.584;2023-08-30T04:03:31;23.90;63.40
42885;DHT22;28534;48.100;11.584;2023-08-30T04:04:33;23.90;63.40
42885;DHT22;28534;48.100;11.584;2023-08-30T04:05:33;23.90;63.40
42885;DHT22;28534;48.100;11.584;2023-08-30T04:06:35;23.90;63.30
42885;DHT22;28534;48.100;11.584;2023-08-30T04:07:36;23.90;63.40
42885;DHT22;28534;48.100;11.584;2023-08-30T04:08:37;23.90;63.40
42885;DHT22;28534;48.100;11.584;2023-08-30T04:09:38;23.90;63.40
42885;DHT22;28534;48.100;11.584;2023-08-30T04:10:40;23.90;63.40
42885;DHT22;28534;48.100;11.584;2023-08-30T04:11:41;23.90;63.40
42885;DHT22;28534;48.100;11.584;2023-08-30T04:12:43;23.90;63.40
42885;DHT22;28534;48.100;11.584;2023-08-30T04:13:44;23.90;63.30
42885;DHT22;28534;48.100;11.584;2023-08-30T04:14:45;23.90;63.40
42885;DHT22;28534;48.100;11.584;2023-08-30T04:15:47;23.90;63.40
42885;DHT22;28534;48.100;11.584;2023-08-30T04:16:50;23.90;63.30
42885;DHT22;28534;48.100;11.584;2023-08-30T04:17:50;23.90;63.30
42885;DHT22;28534;48.100;11.584;2023-08-30T04:18:51;23.90;63.40
42885;DHT22;28534;48.100;11.584;2023-08-30T04:19:52;23.90;63.30
42885;DHT22;28534;48.100;11.584;2023-08-30T04:20:53;23.90;63.40
42885;DHT22;28534;48.100;11.584;2023-08-30T04:21:55;23.90;63.30
42885;DHT22;28534;48.100;11.584;2023-08-30T04:22:55;23.90;63.40
42885;DHT22;28534;48.100;11.584;2023-08-30T04:23:58;23.90;63.40
42885;DHT22;28534;48.100;11.584;2023-08-30T04:24:59;23.90;63.40
42885;DHT22;28534;48.100;11.584;2023-08-30T04:26:00;23.90;63.30
42885;DHT22;28534;48.100;11.584;2023-08-30T04:27:01;23.90;63.30
42885;DHT22;28534;48.100;11.584;2023-08-30T04:28:02;23.90;63.30
42885;DHT22;28534;48.100;11.584;2023-08-30T04:29:03;23.90;63.30
42885;DHT22;28534;48.100;11.584;2023-08-30T04:30:05;23.90;63.40
42885;DHT22;28534;48.100;11.584;2023-08-30T04:31:06;23.90;63.40
42885;DHT22;28534;48.100;11.584;2023-08-30T04:32:09;23.90;63.40
42885;DHT22;28534;48.100;11.584;2023-08-30T04:33:10;23.90;63.40
42885;DHT22;28534;48.100;11.584;2023-08-30T04:34:11;23.90;63.40
42885;DHT22;28534;48.100;11.584;2023-08-30T04:35:12;23.90;63.40
42885;DHT22;28534;48.100;11.584;2023-08-30T04:36:13;23.90;63.40
42885;DHT22;28534;48.100;11.584;2023-08-30T04:37:14;23.90;63.40
42885;DHT22;28534;48.100;11.584;2023-08-30T04:38:16;23.90;63.70
42885;DHT22;28534;48.100;11.584;2023-08-30T04:39:16;23.90;64.30
42885;DHT22;28534;48.100;11.584;2023-08-30T04:40:18;23.90;63.90
42885;DHT22;28534;48.100;11.584;2023-08-30T04:41:18;23.90;64.00
42885;DHT22;28534;48.100;11.584;2023-08-30T04:42:20;23.90;63.90
42885;DHT22;28534;48.100;11.584;2023-08-30T04:43:20;23.90;63.70
42885;DHT22;28534;48.100;11.584;2023-08-30T04:44:22;23.90;63.60
42885;DHT22;28534;48.100;11.584;2023-08-30T04:45:25;23.90;63.50
42885;DHT22;28534;48.100;11.584;2023-08-30T04:46:26;24.00;63.50
42885;DHT22;28534;48.100;11.584;2023-08-30T04:47:29;24.00;63.40
42885;DHT22;28534;48.100;11.584;2023-08-30T04:48:30;24.00;63.50
42885;DHT22;28534;48.100;11.584;2023-08-30T04:49:31;24.00;63.60
42885;DHT22;28534;48.100;11.584;2023-08-30T04:50:33;24.00;63.80
42885;DHT22;28534;48.100;11.584;2023-08-30T04:51:33;24.00;64.10
42885;DHT22;28534;48.100;11.584;2023-08-30T04:52:35;24.00;63.50
42885;DHT22;28534;48.100;11.584;2023-08-30T04:53:38;24.00;63.20
42885;DHT22;28534;48.100;11.584;2023-08-30T04:54:43;24.10;63.50
42885;DHT22;28534;48.100;11.584;2023-08-30T04:55:45;24.10;63.30
42885;DHT22;28534;48.100;11.584;2023-08-30T04:56:47;24.20;63.00
42885;DHT22;28534;48.100;11.584;2023-08-30T04:57:47;24.10;63.10
42885;DHT22;28534;48.100;11.584;2023-08-30T04:58:49;24.00;63.80
42885;DHT22;28534;48.100;11.584;2023-08-30T04:59:50;24.10;63.50
42885;DHT22;28534;48.100;11.584;2023-08-30T05:00:52;24.00;63.90
42885;DHT22;28534;48.100;11.584;2023-08-30T05:01:52;24.10;63.90
42885;DHT22;28534;48.100;11.584;2023-08-30T05:02:55;24.00;63.80
42885;DHT22;28534;48.100;11.584;2023-08-30T05:03:56;24.00;63.90
42885;DHT22;28534;48.100;11.584;2023-08-30T05:04:58;24.00;64.80
42885;DHT22;28534;48.100;11.584;2023-08-30T05:05:58;24.00;64.20
42885;DHT22;28534;48.100;11.584;2023-08-30T05:07:00;24.00;64.20
42885;DHT22;28534;48.100;11.584;2023-08-30T05:08:01;24.10;63.80
42885;DHT22;28534;48.100;11.584;2023-08-30T05:09:02;24.10;63.70
42885;DHT22;28534;48.100;11.584;2023-08-30T05:10:04;24.10;63.60
42885;DHT22;28534;48.100;11.584;2023-08-30T05:11:05;24.10;63.80
42885;DHT22;28534;48.100;11.584;2023-08-30T05:12:06;24.10;64.20
42885;DHT22;28534;48.100;11.584;2023-08-30T05:13:08;24.00;64.40
42885;DHT22;28534;48.100;11.584;2023-08-30T05:14:09;24.00;64.40
42885;DHT22;28534;48.100;11.584;2023-08-30T05:15:13;24.00;64.10
42885;DHT22;28534;48.100;11.584;2023-08-30T05:16:13;24.00;64.50
42885;DHT22;28534;48.100;11.584;2023-08-30T05:17:15;23.90;64.60
42885;DHT22;28534;48.100;11.584;2023-08-30T05:18:18;24.00;65.00
42885;DHT22;28534;48.100;11.584;2023-08-30T05:19:19;24.00;64.60
42885;DHT22;28534;48.100;11.584;2023-08-30T05:20:20;24.00;64.40
42885;DHT22;28534;48.100;11.584;2023-08-30T05:21:22;24.10;64.20
42885;DHT22;28534;48.100;11.584;2023-08-30T05:22:22;24.00;64.50
42885;DHT22;28534;48.100;11.584;2023-08-30T05:23:24;24.00;64.60
42885;DHT22;28534;48.100;11.584;2023-08-30T05:24:24;24.00;64.70
42885;DHT22;28534;48.100;11.584;2023-08-30T05:25:28;24.10;65.00
42885;DHT22;28534;48.100;11.584;2023-08-30T05:26:29;24.00;64.90
42885;DHT22;28534;48.100;11.584;2023-08-30T05:27:30;24.00;65.00
42885;DHT22;28534;48.100;11.584;2023-08-30T05:28:31;24.00;65.10
42885;DHT22;28534;48.100;11.584;2023-08-30T05:29:32;24.00;65.00
42885;DHT22;28534;48.100;11.584;2023-08-30T05:30:33;24.00;65.00
42885;DHT22;28534;48.100;11.584;2023-08-30T05:31:35;24.00;65.00
42885;DHT22;28534;48.100;11.584;2023-08-30T05:32:35;24.00;64.90
42885;DHT22;28534;48.100;11.584;2023-08-30T05:33:38;24.00;65.00
42885;DHT22;28534;48.100;11.584;2023-08-30T05:34:39;24.00;65.00
42885;DHT22;28534;48.100;11.584;2023-08-30T05:35:40;24.00;65.00
42885;DHT22;28534;48.100;11.584;2023-08-30T05:36:41;24.00;65.00
42885;DHT22;28534;48.100;11.584;2023-08-30T05:37:42;24.10;65.40
42885;DHT22;28534;48.100;11.584;2023-08-30T05:38:43;24.00;65.20
42885;DHT22;28534;48.100;11.584;2023-08-30T05:39:44;24.00;65.20
42885;DHT22;28534;48.100;11.584;2023-08-30T05:40:45;24.00;65.20
42885;DHT22;28534;48.100;11.584;2023-08-30T05:41:46;24.10;65.40
42885;DHT22;28534;48.100;11.584;2023-08-30T05:42:48;24.00;65.30
42885;DHT22;28534;48.100;11.584;2023-08-30T05:43:48;24.00;65.20
42885;DHT22;28534;48.100;11.584;2023-08-30T05:44:50;24.00;65.30
42885;DHT22;28534;48.100;11.584;2023-08-30T05:45:50;24.00;65.20
42885;DHT22;28534;48.100;11.584;2023-08-30T05:46:52;24.00;65.40
42885;DHT22;28534;48.100;11.584;2023-08-30T05:47:53;24.10;65.20
42885;DHT22;28534;48.100;11.584;2023-08-30T05:48:56;24.00;64.80
42885;DHT22;28534;48.100;11.584;2023-08-30T05:49:56;24.10;65.20
42885;DHT22;28534;48.100;11.584;2023-08-30T05:50:59;24.10;65.30
42885;DHT22;28534;48.100;11.584;2023-08-30T05:51:59;24.00;65.20
42885;DHT22;28534;48.100;11.584;2023-08-30T05:53:01;24.00;65.20
42885;DHT22;28534;48.100;11.584;2023-08-30T05:54:01;24.00;65.10
42885;DHT22;28534;48.100;11.584;2023-08-30T05:55:02;24.10;65.40
42885;DHT22;28534;48.100;11.584;2023-08-30T05:56:04;24.10;65.30
42885;DHT22;28534;48.100;11.584;2023-08-30T05:57:05;24.10;65.20
42885;DHT22;28534;48.100;11.584;2023-08-30T05:58:06;24.10;65.40
42885;DHT22;28534;48.100;11.584;2023-08-30T05:59:07;24.10;65.50
42885;DHT22;28534;48.100;11.584;2023-08-30T06:00:09;24.00;65.30
42885;DHT22;28534;48.100;11.584;2023-08-30T06:01:09;24.00;65.20
42885;DHT22;28534;48.100;11.584;2023-08-30T06:02:11;24.10;65.10
42885;DHT22;28534;48.100;11.584;2023-08-30T06:03:12;24.10;65.80
42885;DHT22;28534;48.100;11.584;2023-08-30T06:04:15;24.00;65.20
42885;DHT22;28534;48.100;11.584;2023-08-30T06:05:15;24.10;65.30
42885;DHT22;28534;48.100;11.584;2023-08-30T06:06:17;24.10;65.10
42885;DHT22;28534;48.100;11.584;2023-08-30T06:07:17;24.10;65.00
42885;DHT22;28534;48.100;11.584;2023-08-30T06:08:19;24.10;64.70
42885;DHT22;28534;48.100;11.584;2023-08-30T06:09:20;24.10;64.80
42885;DHT22;28534;48.100;11.584;2023-08-30T06:10:21;24.10;64.90
42885;DHT22;28534;48.100;11.584;2023-08-30T06:11:23;24.10;64.50
42885;DHT22;28534;48.100;11.584;2023-08-30T06:12:25;24.10;64.60
42885;DHT22;28534;48.100;11.584;2023-08-30T06:13:25;24.00;65.00
42885;DHT22;28534;48.100;11.584;2023-08-30T06:14:27;24.00;65.20
42885;DHT22;28534;48.100;11.584;2023-08-30T06:15:28;24.10;64.70
42885;DHT22;28534;48.100;11.584;2023-08-30T06:16:29;24.00;64.50
42885;DHT22;28534;48.100;11.584;2023-08-30T06:17:30;24.00;64.70
42885;DHT22;28534;48.100;11.584;2023-08-30T06:18:31;24.00;65.70
42885;DHT22;28534;48.100;11.584;2023-08-30T06:19:33;24.00;64.90
42885;DHT22;28534;48.100;11.584;2023-08-30T06:20:35;24.00;64.60
42885;DHT22;28534;48.100;11.584;2023-08-30T06:21:36;24.00;64.70
42885;DHT22;28534;48.100;11.584;2023-08-30T06:22:37;24.00;64.50